Time;durP1;ratioP1;P1;durP2;ratioP2;P2;SDS_P1;SDS_P2;PMS_P1;PMS_P2;Temp;Humidity;BMP_temperature;BMP_pressure;BME280_temperature;BME280_humidity;BME280_pressure;Samples;Min_cycle;Max_cycle;Signal;HPM_P1;HPM_P2
2022/10/15 00:00:49;;;;;;;7.75;3.00;;;;;;;17.61;65.22;101676.50;5048406;28;20037;-84
2022/10/15 00:03:15;;;;;;;7.40;3.13;;;;;;;17.51;65.25;101661.13;5046558;28;20039;-85
2022/10/15 00:05:41;;;;;;;8.13;2.80;;;;;;;17.45;65.80;101672.34;5043483;28;20025;-84
2022/10/15 00:08:08;;;;;;;6.07;2.90;;;;;;;17.42;65.74;101659.03;5041252;28;20562;-85
2022/10/15 00:10:34;;;;;;;8.00;2.85;;;;;;;17.50;65.76;101670.81;5043561;28;20037;-84
2022/10/15 00:13:00;;;;;;;5.93;2.50;;;;;;;17.19;66.11;101644.88;5050056;28;20075;-85
2022/10/15 00:15:26;;;;;;;8.05;3.13;;;;;;;17.50;65.50;101656.69;5034090;28;20029;-85
2022/10/15 00:17:51;;;;;;;6.65;3.30;;;;;;;17.67;65.33;101659.97;5040399;28;20037;-85
2022/10/15 00:20:17;;;;;;;4.25;2.63;;;;;;;17.65;65.20;101662.59;5045017;28;20479;-85
2022/10/15 00:22:42;;;;;;;5.53;2.70;;;;;;;17.64;65.08;101630.81;5042483;28;20033;-85
2022/10/15 00:25:08;;;;;;;7.35;2.60;;;;;;;17.74;64.94;101648.84;5030469;28;20029;-85
2022/10/15 00:27:34;;;;;;;5.55;2.42;;;;;;;17.81;64.83;101657.88;5033962;28;20044;-84
2022/10/15 00:30:02;;;;;;;6.05;2.47;;;;;;;17.59;65.06;101629.72;5039175;28;20021;-84
2022/10/15 00:32:28;;;;;;;7.20;2.30;;;;;;;17.65;65.36;101653.72;5030370;28;20021;-84
2022/10/15 00:34:54;;;;;;;6.43;2.45;;;;;;;17.55;65.23;101639.28;5040440;28;20558;-84
2022/10/15 00:37:21;;;;;;;5.68;2.47;;;;;;;17.49;65.74;101657.53;5034595;28;20123;-84
2022/10/15 00:39:46;;;;;;;5.45;2.40;;;;;;;17.49;65.42;101652.25;5049202;28;20154;-84
2022/10/15 00:42:12;;;;;;;4.40;2.30;;;;;;;17.48;65.57;101639.88;5036285;28;20044;-84
2022/10/15 00:44:53;;;;;;;4.13;2.35;;;;;;;17.65;65.31;101638.81;5044930;28;20025;-82
2022/10/15 00:47:24;;;;;;;4.63;1.88;;;;;;;17.74;65.14;101640.91;5043492;28;20659;-83
2022/10/15 00:49:55;;;;;;;5.10;2.22;;;;;;;17.63;65.17;101615.78;5034738;28;20037;-83
2022/10/15 00:52:44;;;;;;;4.20;2.17;;;;;;;17.79;64.96;101641.09;5040789;28;20041;-83
2022/10/15 00:55:29;;;;;;;8.07;2.55;;;;;;;17.69;64.58;101608.13;5020999;28;20087;-82
2022/10/15 00:57:58;;;;;;;6.53;2.60;;;;;;;17.75;64.44;101636.50;5042607;28;20505;-83
2022/10/15 01:00:23;;;;;;;5.95;3.20;;;;;;;17.74;64.64;101639.97;5030658;28;20518;-83
2022/10/15 01:02:49;;;;;;;9.32;2.88;;;;;;;17.73;64.39;101639.09;5044270;28;20040;-83
2022/10/15 01:05:16;;;;;;;8.77;2.90;;;;;;;17.85;63.95;101636.97;5040838;28;20033;-83
2022/10/15 01:07:41;;;;;;;9.63;3.30;;;;;;;17.41;64.12;101578.00;5045453;28;20174;-83
2022/10/15 01:10:08;;;;;;;6.53;3.05;;;;;;;17.79;64.04;101628.75;5048905;28;20052;-83
2022/10/15 01:13:01;;;;;;;7.75;2.95;;;;;;;17.81;63.73;101635.00;5034423;28;20387;-82
2022/10/15 01:15:57;;;;;;;7.38;3.55;;;;;;;17.79;63.83;101628.75;5037008;28;20057;-82
2022/10/15 01:18:32;;;;;;;6.70;2.88;;;;;;;17.87;64.15;101627.34;5052580;28;20060;-83
2022/10/15 01:21:20;;;;;;;6.78;2.78;;;;;;;17.62;64.43;101582.31;5041328;28;20025;-84
2022/10/15 01:24:17;;;;;;;8.27;3.22;;;;;;;17.85;64.20;101621.09;5052429;28;20036;-84
2022/10/15 01:27:14;;;;;;;6.22;2.80;;;;;;;17.81;64.11;101616.50;5053202;28;20033;-84
2022/10/15 01:29:39;;;;;;;6.22;2.75;;;;;;;17.87;64.28;101615.88;5032219;28;20029;-83
2022/10/15 01:32:12;;;;;;;6.07;2.90;;;;;;;17.81;64.45;101605.06;5048066;28;20103;-83
2022/10/15 01:35:02;;;;;;;6.93;3.17;;;;;;;17.84;64.25;101616.69;5044324;28;20504;-85
2022/10/15 01:37:39;;;;;;;10.00;3.20;;;;;;;17.82;64.53;101620.03;5042680;28;20124;-83
2022/10/15 01:40:29;;;;;;;6.10;2.72;;;;;;;17.69;64.89;101609.03;5038075;28;20024;-83
2022/10/15 01:43:00;;;;;;;3.70;2.45;;;;;;;17.76;63.95;101609.25;5047997;28;20027;-84
2022/10/15 01:45:34;;;;;;;4.78;2.70;;;;;;;17.79;64.22;101607.63;5053168;28;20051;-84
2022/10/15 01:48:03;;;;;;;4.55;2.63;;;;;;;17.84;63.71;101616.69;5051602;28;20100;-85
2022/10/15 01:50:30;;;;;;;4.20;2.80;;;;;;;17.64;63.75;101581.53;5050900;28;20035;-84
2022/10/15 01:52:56;;;;;;;7.50;3.10;;;;;;;17.63;64.58;101600.88;5040840;28;20101;-83
2022/10/15 01:55:22;;;;;;;6.10;2.70;;;;;;;17.78;64.58;101611.13;5035721;28;20106;-84
2022/10/15 01:57:49;;;;;;;6.93;2.65;;;;;;;17.84;64.59;101621.03;5052895;28;20043;-86
2022/10/15 02:00:15;;;;;;;4.97;2.60;;;;;;;17.73;64.11;101591.53;5032753;28;20033;-83
2022/10/15 02:02:40;;;;;;;;;;;;;;;17.83;64.07;101613.97;5035438;28;20406;-84
2022/10/15 02:05:15;;;;;;;6.57;2.78;;;;;;;17.53;64.16;101553.81;5053890;28;19919;-83
2022/10/15 02:07:48;;;;;;;4.57;2.58;;;;;;;17.71;64.23;101595.84;5051164;28;20021;-84
2022/10/15 02:10:52;;;;;;;5.15;2.53;;;;;;;17.85;64.45;101610.53;5038145;28;20506;-87
2022/10/15 02:13:35;;;;;;;5.80;2.47;;;;;;;17.83;64.39;101599.00;5025070;28;20029;-83
2022/10/15 02:16:23;;;;;;;4.93;2.67;;;;;;;17.71;64.52;101585.28;5052393;28;20032;-84
2022/10/15 02:19:04;;;;;;;4.75;2.50;;;;;;;17.71;64.72;101593.22;5037711;28;20037;-84
2022/10/15 02:22:08;;;;;;;5.15;2.50;;;;;;;17.76;64.57;101604.88;5055960;28;20594;-84
2022/10/15 02:25:04;;;;;;;4.20;2.53;;;;;;;17.78;64.21;101594.34;5049542;28;20045;-86
2022/10/15 02:27:30;;;;;;;5.18;2.85;;;;;;;17.74;64.60;101601.28;5042725;28;20063;-82
2022/10/15 02:29:56;;;;;;;;;;;;;;;17.78;64.51;101613.78;5051147;28;20475;-83
2022/10/15 02:32:24;;;;;;;4.30;2.50;;;;;;;17.74;64.46;101596.00;5031008;28;19916;-85
2022/10/15 02:34:50;;;;;;;6.72;2.78;;;;;;;17.71;64.65;101595.84;5037731;28;20025;-85
2022/10/15 02:37:19;;;;;;;7.43;2.85;;;;;;;17.67;64.56;101592.22;5050739;28;20045;-85
2022/10/15 02:39:44;;;;;;;4.85;2.60;;;;;;;17.67;64.78;101593.94;5046249;28;20172;-85
2022/10/15 02:42:10;;;;;;;8.43;2.63;;;;;;;17.56;64.65;101571.50;5051091;28;20116;-86
2022/10/15 02:44:36;;;;;;;4.60;2.85;;;;;;;17.67;64.65;101588.66;5047359;28;20490;-85
2022/10/15 02:47:02;;;;;;;3.83;2.55;;;;;;;17.66;64.38;101581.59;5049530;28;20036;-83
2022/10/15 02:49:27;;;;;;;6.82;2.65;;;;;;;17.44;64.42;101548.16;5052015;28;20040;-84
2022/10/15 02:51:53;;;;;;;7.43;2.80;;;;;;;17.75;64.58;101599.53;5055361;28;20052;-84
2022/10/15 02:54:19;;;;;;;5.00;2.38;;;;;;;17.73;64.33;101583.63;5059275;28;20434;-83
2022/10/15 02:56:44;;;;;;;7.35;2.90;;;;;;;17.68;64.97;101594.00;5054760;28;20039;-84
2022/10/15 02:59:10;;;;;;;4.85;2.50;;;;;;;17.68;64.41;101593.13;5050146;28;20025;-84
2022/10/15 03:01:36;;;;;;;5.50;2.95;;;;;;;17.35;64.48;101540.78;5051217;28;20036;-84
2022/10/15 03:04:01;;;;;;;5.97;2.80;;;;;;;17.59;64.04;101585.75;5044096;28;20029;-83
2022/10/15 03:06:27;;;;;;;7.03;3.13;;;;;;;17.57;64.48;101581.22;5043549;28;20039;-84
2022/10/15 03:08:53;;;;;;;4.40;2.70;;;;;;;17.58;64.20;101581.28;5050203;28;20117;-83
2022/10/15 03:11:19;;;;;;;4.90;2.65;;;;;;;17.58;64.36;101577.75;5046407;28;20038;-84
2022/10/15 03:13:44;;;;;;;5.68;3.17;;;;;;;17.64;64.36;101597.38;5048030;28;20493;-82
2022/10/15 03:16:10;;;;;;;6.47;2.85;;;;;;;17.29;64.44;101527.34;5043124;28;20029;-83
2022/10/15 03:18:36;;;;;;;;;;;;;;;17.77;64.13;101608.41;5046530;28;20473;-84
2022/10/15 03:21:02;;;;;;;5.68;2.78;;;;;;;17.57;64.84;101595.34;5057524;28;20012;-83
2022/10/15 03:23:28;;;;;;;;;;;;;;;17.69;64.46;101613.41;5043484;28;20035;-83
2022/10/15 03:25:53;;;;;;;5.90;2.58;;;;;;;17.69;64.29;101605.47;5050885;28;19992;-83
2022/10/15 03:28:20;;;;;;;3.78;2.90;;;;;;;17.66;64.12;101600.09;5040641;28;20039;-85
2022/10/15 03:30:46;;;;;;;6.35;2.88;;;;;;;17.49;64.13;101575.66;5033178;28;20037;-84
2022/10/15 03:33:11;;;;;;;5.97;2.63;;;;;;;17.57;64.01;101584.78;5034970;28;20112;-83
2022/10/15 03:35:38;;;;;;;5.40;2.95;;;;;;;17.63;64.23;101606.16;5045607;28;20090;-85
2022/10/15 03:38:03;;;;;;;;;;;;;;;17.70;64.27;101608.19;5042317;28;20565;-84
2022/10/15 03:40:29;;;;;;;4.95;2.83;;;;;;;17.64;63.96;101596.47;5045655;28;19916;-83
2022/10/15 03:42:55;;;;;;;6.15;2.95;;;;;;;17.70;64.27;101602.00;5042095;28;20454;-82
2022/10/15 03:45:20;;;;;;;;;;;;;;;17.75;64.44;101607.44;5047212;28;20502;-83
2022/10/15 03:47:46;;;;;;;3.95;2.65;;;;;;;17.79;64.26;101612.91;5043285;28;19920;-83
2022/10/15 03:50:12;;;;;;;6.25;2.85;;;;;;;17.73;64.11;101601.22;5049962;28;20494;-84
2022/10/15 03:52:37;;;;;;;5.03;2.85;;;;;;;17.65;64.26;101600.91;5051334;28;20024;-86
2022/10/15 03:55:04;;;;;;;7.35;3.00;;;;;;;17.57;64.34;101581.22;5050921;28;20144;-84
2022/10/15 03:57:30;;;;;;;5.25;2.78;;;;;;;17.70;64.72;101602.91;5042161;28;20167;-84
2022/10/15 03:59:56;;;;;;;6.75;2.65;;;;;;;17.72;64.28;101594.16;5052346;28;20111;-83
2022/10/15 04:02:22;;;;;;;5.65;2.80;;;;;;;17.70;64.76;101602.00;5043358;28;20040;-85
2022/10/15 04:04:50;;;;;;;5.20;3.03;;;;;;;17.69;64.48;101597.53;5036346;28;20108;-85
2022/10/15 04:07:16;;;;;;;4.15;2.83;;;;;;;17.57;64.47;101576.88;5045387;28;20107;-85
2022/10/15 04:09:41;;;;;;;5.95;3.03;;;;;;;17.69;64.35;101601.09;5047054;28;20030;-85
2022/10/15 04:12:07;;;;;;;3.80;2.85;;;;;;;17.69;64.04;101589.63;5046097;28;20040;-84
2022/10/15 04:14:33;;;;;;;6.00;3.10;;;;;;;17.54;64.52;101565.28;5031115;28;20026;-84
2022/10/15 04:16:58;;;;;;;4.40;3.10;;;;;;;17.78;63.99;101599.63;5041601;28;20047;-84
2022/10/15 04:19:24;;;;;;;5.93;3.03;;;;;;;17.60;64.01;101578.72;5042981;28;20033;-84
2022/10/15 04:21:50;;;;;;;5.15;3.05;;;;;;;17.52;64.51;101562.56;5054126;28;20041;-84
2022/10/15 04:24:15;;;;;;;5.40;3.30;;;;;;;17.58;64.60;101577.75;5042450;28;20120;-85
2022/10/15 04:26:41;;;;;;;3.67;2.80;;;;;;;17.61;64.56;101570.84;5046618;28;20035;-85
2022/10/15 04:29:07;;;;;;;6.63;3.58;;;;;;;17.45;64.20;101535.03;5042837;28;20471;-85
2022/10/15 04:31:32;;;;;;;5.15;2.90;;;;;;;17.29;64.56;101525.63;5042052;28;20025;-85
2022/10/15 04:33:58;;;;;;;4.80;3.33;;;;;;;17.62;64.63;101591.13;5035787;28;20548;-85
2022/10/15 04:36:24;;;;;;;5.53;3.47;;;;;;;17.60;64.26;101561.13;5033284;28;20033;-84
2022/10/15 04:38:50;;;;;;;5.85;3.30;;;;;;;17.54;64.06;101570.56;5055275;28;20041;-85
2022/10/15 04:41:15;;;;;;;5.63;3.08;;;;;;;17.70;64.44;101613.47;5041069;28;20080;-84
2022/10/15 04:43:41;;;;;;;6.57;2.80;;;;;;;17.50;65.01;101588.94;5049121;28;20032;-87
2022/10/15 04:46:26;;;;;;;4.47;2.90;;;;;;;17.65;64.24;101598.25;5042770;28;20507;-85
2022/10/15 04:48:52;;;;;;;8.43;3.17;;;;;;;17.72;64.09;101602.06;5040980;28;20041;-85
2022/10/15 04:51:19;;;;;;;8.48;3.20;;;;;;;17.59;64.37;101587.47;5035118;28;20030;-85
2022/10/15 04:53:44;;;;;;;6.20;3.38;;;;;;;17.46;64.02;101571.16;5032348;28;20036;-85
2022/10/15 04:56:14;;;;;;;6.38;3.17;;;;;;;17.46;64.64;101572.88;5032199;28;20034;-85
2022/10/15 04:58:41;;;;;;;4.88;3.17;;;;;;;17.38;64.49;101574.34;5038622;28;20040;-85
2022/10/15 05:01:12;;;;;;;7.95;3.58;;;;;;;17.44;64.50;101566.66;5037929;28;20049;-85
2022/10/15 05:03:39;;;;;;;9.45;3.45;;;;;;;17.49;64.31;101580.94;5036179;28;20520;-85
2022/10/15 05:06:17;;;;;;;8.40;3.70;;;;;;;17.65;64.27;101608.81;5035702;28;20081;-85
2022/10/15 05:08:42;;;;;;;7.30;3.97;;;;;;;17.45;64.62;101598.41;5039863;28;20036;-85
2022/10/15 05:11:11;;;;;;;7.47;3.70;;;;;;;17.39;64.53;101597.25;5041510;28;20025;-84
2022/10/15 05:13:37;;;;;;;7.63;3.63;;;;;;;17.38;64.43;101588.44;5037230;28;20028;-84
2022/10/15 05:16:12;;;;;;;6.05;3.38;;;;;;;17.62;64.44;101625.47;5056830;28;20406;-84
2022/10/15 05:18:38;;;;;;;6.55;3.67;;;;;;;17.62;64.64;101622.81;5042425;28;20033;-85
2022/10/15 05:21:04;;;;;;;8.02;3.53;;;;;;;17.37;64.55;101586.63;5045750;28;20265;-83
2022/10/15 05:23:30;;;;;;;6.38;3.35;;;;;;;17.41;64.63;101585.03;5040907;28;20091;-83
2022/10/15 05:26:00;;;;;;;5.68;3.08;;;;;;;17.35;64.85;101583.03;5041865;28;20433;-83
2022/10/15 05:28:25;;;;;;;5.85;3.20;;;;;;;17.67;64.46;101617.72;5038608;28;20383;-83
2022/10/15 05:30:51;;;;;;;4.25;3.45;;;;;;;17.66;64.71;101623.84;5038551;28;20108;-83
2022/10/15 05:33:16;;;;;;;7.50;3.83;;;;;;;17.67;64.72;101630.94;5042013;28;20060;-83
2022/10/15 05:35:42;;;;;;;6.18;3.47;;;;;;;17.61;64.66;101597.28;5049990;28;20040;-84
2022/10/15 05:38:07;;;;;;;5.88;3.40;;;;;;;17.66;64.72;101623.84;5051702;28;20097;-84
2022/10/15 05:40:33;;;;;;;6.53;3.58;;;;;;;17.67;64.69;101626.56;5040750;28;20033;-83
2022/10/15 05:42:58;;;;;;;6.65;3.38;;;;;;;17.52;64.50;101596.00;5038287;28;20116;-82
2022/10/15 05:45:24;;;;;;;6.93;3.30;;;;;;;17.59;64.58;101625.38;5054276;28;20048;-83
2022/10/15 05:47:54;;;;;;;5.88;3.50;;;;;;;17.61;64.98;101635.97;5051204;28;20025;-84
2022/10/15 05:50:19;;;;;;;8.57;4.05;;;;;;;17.63;64.87;101645.78;5033541;28;20124;-84
2022/10/15 05:52:45;;;;;;;7.30;3.75;;;;;;;17.47;65.44;101644.25;5042900;28;20114;-83
2022/10/15 05:55:10;;;;;;;6.45;3.72;;;;;;;17.39;65.51;101626.31;5047528;28;20388;-84
2022/10/15 05:57:36;;;;;;;8.88;4.22;;;;;;;17.32;66.11;101635.72;5051237;28;20037;-84
2022/10/15 06:00:04;;;;;;;7.85;4.13;;;;;;;17.43;66.02;101637.03;5045963;28;20024;-85
2022/10/15 06:02:29;;;;;;;11.43;4.53;;;;;;;17.29;66.13;101625.94;5042839;28;20029;-83
2022/10/15 06:04:55;;;;;;;7.60;4.20;;;;;;;17.27;66.20;101634.63;5052462;28;20047;-84
2022/10/15 06:07:20;;;;;;;7.95;4.22;;;;;;;17.21;66.79;101650.25;5052360;28;20029;-82
2022/10/15 06:09:47;;;;;;;10.18;4.88;;;;;;;17.26;66.48;101632.84;5044343;28;20021;-83
2022/10/15 06:12:13;;;;;;;12.00;5.20;;;;;;;17.34;66.52;101639.34;5047549;28;20032;-83
2022/10/15 06:14:38;;;;;;;11.15;4.45;;;;;;;16.90;66.78;101585.63;5051625;28;20112;-82
2022/10/15 06:17:04;;;;;;;12.35;4.40;;;;;;;16.73;68.02;101594.56;5059170;28;20567;-83
2022/10/15 06:19:30;;;;;;;8.00;4.30;;;;;;;16.92;68.03;101638.47;5060805;28;20054;-84
2022/10/15 06:21:55;;;;;;;9.05;4.72;;;;;;;16.78;68.73;101627.28;5059924;28;20479;-84
2022/10/15 06:24:21;;;;;;;10.07;4.45;;;;;;;16.76;68.69;101623.69;5042011;28;20183;-85
2022/10/15 06:26:46;;;;;;;9.95;4.65;;;;;;;16.82;68.57;101642.44;5046129;28;20090;-85
2022/10/15 06:29:12;;;;;;;12.07;5.05;;;;;;;16.83;68.78;101637.25;5041192;28;20029;-86
2022/10/15 06:31:37;;;;;;;13.27;4.68;;;;;;;16.71;68.55;101605.03;5049150;28;20115;-83
2022/10/15 06:34:03;;;;;;;15.23;5.30;;;;;;;16.77;68.91;101633.41;5045908;28;20490;-80
2022/10/15 06:36:29;;;;;;;11.07;4.75;;;;;;;16.78;69.06;101646.63;5041611;28;20610;-79
2022/10/15 06:38:55;;;;;;;12.43;5.05;;;;;;;16.81;68.94;101645.94;5042129;28;20486;-79
2022/10/15 06:41:20;;;;;;;15.32;5.13;;;;;;;16.79;68.92;101651.09;5040205;28;20037;-78
2022/10/15 06:43:49;;;;;;;13.30;5.03;;;;;;;16.78;68.81;101656.31;5033617;28;20505;-79
2022/10/15 06:46:14;;;;;;;13.27;5.80;;;;;;;16.82;68.61;101653.88;5050946;28;20051;-79
2022/10/15 06:48:40;;;;;;;9.13;4.68;;;;;;;17.06;67.71;101666.34;5036561;28;20151;-79
2022/10/15 06:51:06;;;;;;;14.35;5.03;;;;;;;16.87;68.39;101675.22;5050892;28;20036;-79
2022/10/15 06:53:32;;;;;;;7.90;4.50;;;;;;;16.90;68.19;101662.13;5060460;28;20392;-81
2022/10/15 06:55:59;;;;;;;11.65;5.20;;;;;;;16.91;68.67;101673.59;5044990;28;20084;-79
2022/10/15 06:58:25;;;;;;;12.65;5.10;;;;;;;16.86;68.54;101665.47;5055072;28;20036;-79
2022/10/15 07:00:50;;;;;;;10.18;4.63;;;;;;;16.80;69.01;101666.09;5046300;28;20036;-79
2022/10/15 07:03:16;;;;;;;11.88;4.82;;;;;;;16.76;69.21;101665.88;5043370;28;20033;-80
2022/10/15 07:05:42;;;;;;;9.93;4.97;;;;;;;16.73;68.85;101669.28;5051898;28;20071;-79
2022/10/15 07:08:07;;;;;;;9.80;4.72;;;;;;;16.73;69.25;101658.75;5051432;28;20057;-80
2022/10/15 07:10:33;;;;;;;13.18;5.53;;;;;;;16.80;69.30;101668.75;5050583;28;20032;-79
2022/10/15 07:12:59;;;;;;;12.75;5.18;;;;;;;16.76;69.16;101674.69;5035270;28;20025;-79
2022/10/15 07:15:25;;;;;;;;;;;;;;;16.93;68.65;101679.84;5031196;28;20459;-80
2022/10/15 07:18:00;;;;;;;14.90;5.40;;;;;;;16.80;69.36;101671.38;5030160;28;19986;-79
2022/10/15 07:20:27;;;;;;;14.60;5.50;;;;;;;16.80;69.34;101684.56;5034886;28;20471;-79
2022/10/15 07:22:58;;;;;;;11.05;5.07;;;;;;;16.91;68.93;101684.13;5048871;28;20036;-79
2022/10/15 07:25:24;;;;;;;8.13;4.57;;;;;;;16.86;68.84;101670.75;5045193;28;20651;-79
2022/10/15 07:27:50;;;;;;;15.38;5.53;;;;;;;16.74;68.89;101673.72;5042546;28;20167;-79
2022/10/15 07:30:15;;;;;;;11.68;5.43;;;;;;;16.79;68.95;101684.50;5047252;28;20119;-81
2022/10/15 07:32:42;;;;;;;14.32;5.50;;;;;;;16.76;69.02;101681.72;5034427;28;20044;-80
2022/10/15 07:35:07;;;;;;;10.07;4.78;;;;;;;16.81;68.81;101681.13;5031169;28;20028;-82
2022/10/15 07:37:33;;;;;;;10.90;5.40;;;;;;;16.80;68.84;101675.72;5039638;28;20470;-82
2022/10/15 07:39:59;;;;;;;11.18;4.97;;;;;;;16.87;68.62;101685.78;5032958;28;20123;-82
2022/10/15 07:42:25;;;;;;;13.32;5.22;;;;;;;16.80;68.99;101681.00;5032330;28;20040;-82
2022/10/15 07:44:50;;;;;;;10.55;5.18;;;;;;;16.87;68.77;101689.31;5039934;28;20025;-80
2022/10/15 07:47:16;;;;;;;13.80;5.20;;;;;;;16.99;68.31;101688.00;5041723;28;20398;-81
2022/10/15 07:49:41;;;;;;;9.93;4.93;;;;;;;16.85;68.23;101669.88;5044617;28;20041;-80
2022/10/15 07:52:07;;;;;;;11.98;5.35;;;;;;;16.82;68.39;101680.25;5053415;28;20059;-80
2022/10/15 07:54:33;;;;;;;15.07;5.05;;;;;;;16.86;68.38;101690.13;5036841;28;20514;-79
2022/10/15 07:56:59;;;;;;;9.95;4.88;;;;;;;16.83;68.40;101691.75;5040120;28;20045;-80
2022/10/15 07:59:24;;;;;;;15.65;5.20;;;;;;;16.83;68.61;101695.28;5038237;28;20075;-79
2022/10/15 08:01:50;;;;;;;8.45;4.80;;;;;;;16.76;68.64;101689.63;5053767;28;20078;-80
2022/10/15 08:04:16;;;;;;;15.07;5.07;;;;;;;16.79;68.24;101700.31;5039991;28;20040;-81
2022/10/15 08:06:42;;;;;;;11.15;4.93;;;;;;;16.82;68.32;101693.47;5045884;28;20040;-79
2022/10/15 08:09:07;;;;;;;9.15;5.07;;;;;;;16.84;68.46;101698.81;5032123;28;20022;-78
2022/10/15 08:11:33;;;;;;;12.52;4.90;;;;;;;16.78;68.32;101704.66;5030562;28;20026;-79
2022/10/15 08:13:59;;;;;;;13.05;5.18;;;;;;;16.88;68.12;101699.00;5036254;28;20035;-79
2022/10/15 08:16:24;;;;;;;11.18;4.97;;;;;;;16.80;68.30;101710.03;5034304;28;20095;-80
2022/10/15 08:18:50;;;;;;;16.52;5.45;;;;;;;16.83;68.30;101708.47;5039106;28;20104;-80
2022/10/15 08:21:15;;;;;;;8.57;5.00;;;;;;;16.91;67.94;101718.44;5042868;28;20086;-80
2022/10/15 08:23:41;;;;;;;10.80;4.70;;;;;;;16.91;68.30;101723.72;5048924;28;20029;-79
2022/10/15 08:26:07;;;;;;;12.18;5.30;;;;;;;16.91;68.27;101727.25;5047307;28;20029;-79
2022/10/15 08:28:33;;;;;;;16.05;6.93;;;;;;;16.76;68.40;101721.28;5047488;28;20040;-80
2022/10/15 08:31:00;;;;;;;15.00;8.20;;;;;;;16.96;68.10;101733.66;5050572;28;20569;-80
2022/10/15 08:33:27;;;;;;;11.60;6.82;;;;;;;16.92;68.01;101730.81;5059150;28;20032;-80
2022/10/15 08:35:53;;;;;;;15.73;6.22;;;;;;;16.91;67.89;101729.88;5052317;28;20547;-79
2022/10/15 08:38:19;;;;;;;14.05;5.90;;;;;;;16.77;68.02;101724.00;5049186;28;20128;-80
2022/10/15 08:40:55;;;;;;;11.73;5.95;;;;;;;16.88;68.18;101740.31;5025581;28;20509;-80
2022/10/15 08:43:36;;;;;;;14.43;5.65;;;;;;;17.04;67.35;101737.53;5037905;28;20032;-80
2022/10/15 08:46:05;;;;;;;11.15;5.63;;;;;;;16.99;67.75;101740.78;5050298;28;20100;-80
2022/10/15 08:48:36;;;;;;;12.63;5.28;;;;;;;17.00;67.45;101742.59;5045889;28;20090;-79
2022/10/15 08:51:03;;;;;;;10.65;5.32;;;;;;;17.13;67.32;101754.59;5050802;28;20029;-80
2022/10/15 08:53:29;;;;;;;10.30;5.43;;;;;;;17.15;67.32;101767.00;5048161;28;20032;-79
2022/10/15 08:55:58;;;;;;;13.98;4.95;;;;;;;17.05;67.46;101762.16;5046522;28;20238;-80
2022/10/15 08:59:05;;;;;;;13.00;5.25;;;;;;;17.22;66.78;101761.16;5046798;28;20024;-80
2022/10/15 09:01:51;;;;;;;13.68;5.30;;;;;;;17.13;66.52;101754.59;5027718;28;20049;-79
2022/10/15 09:04:59;;;;;;;10.35;5.35;;;;;;;17.14;66.42;101753.75;5048998;28;20031;-79
2022/10/15 09:07:41;;;;;;;10.00;5.00;;;;;;;17.28;66.29;101771.97;5009803;28;20044;-79
2022/10/15 09:10:35;;;;;;;11.38;4.80;;;;;;;17.33;66.32;101785.38;5037520;28;20040;-80
2022/10/15 09:13:03;;;;;;;13.85;4.78;;;;;;;17.35;66.23;101778.41;5043184;28;20509;-80
2022/10/15 09:15:34;;;;;;;11.02;4.85;;;;;;;17.19;66.29;101744.31;5038332;28;20021;-80
2022/10/15 09:17:59;;;;;;;12.15;4.60;;;;;;;17.39;66.10;101785.63;5047068;28;20107;-80
2022/10/15 09:20:33;;;;;;;9.88;5.13;;;;;;;17.41;66.13;101785.69;5038286;28;20613;-79
2022/10/15 09:22:59;;;;;;;8.57;4.78;;;;;;;17.47;66.01;101793.88;5049205;28;20431;-79
2022/10/15 09:25:32;;;;;;;8.25;4.70;;;;;;;17.37;66.11;101778.50;5048606;28;20171;-79
2022/10/15 09:27:59;;;;;;;9.40;4.32;;;;;;;17.31;66.00;101771.19;5051894;28;20044;-79
2022/10/15 09:30:50;;;;;;;8.70;4.35;;;;;;;17.46;66.07;101794.69;5048378;28;20033;-79
2022/10/15 09:33:25;;;;;;;9.98;4.72;;;;;;;17.43;66.54;101797.22;5060009;28;20078;-79
2022/10/15 09:36:15;;;;;;;8.77;4.30;;;;;;;17.43;66.22;101786.66;5057504;28;20040;-80
2022/10/15 09:39:14;;;;;;;9.27;4.40;;;;;;;17.48;66.32;101801.88;5045581;28;20037;-80
2022/10/15 09:41:52;;;;;;;9.57;4.80;;;;;;;17.50;66.23;101794.94;5053188;28;20094;-79
2022/10/15 09:44:21;;;;;;;10.50;4.50;;;;;;;17.53;66.20;101799.44;5046109;28;20037;-80
2022/10/15 09:46:48;;;;;;;10.50;4.50;;;;;;;17.40;66.90;101791.81;5039613;28;20035;-80
2022/10/15 09:49:26;;;;;;;8.82;4.50;;;;;;;17.34;67.61;101792.47;5047380;28;20021;-79
2022/10/15 09:52:16;;;;;;;8.98;4.30;;;;;;;17.39;67.35;101787.38;5050679;28;20031;-80
2022/10/15 09:55:09;;;;;;;10.23;4.22;;;;;;;17.37;67.53;101787.31;5053314;28;20494;-80
2022/10/15 09:57:37;;;;;;;10.13;4.05;;;;;;;17.33;67.79;101797.66;5032604;28;20056;-80
2022/10/15 10:00:07;;;;;;;8.05;4.00;;;;;;;17.41;67.64;101798.91;5046507;28;20502;-79
2022/10/15 10:02:33;;;;;;;9.20;4.65;;;;;;;17.36;68.16;101793.44;5052638;28;20036;-80
2022/10/15 10:05:18;;;;;;;17.35;4.43;;;;;;;17.42;67.63;101792.78;5056945;28;20025;-79
2022/10/15 10:07:43;;;;;;;9.65;4.05;;;;;;;17.43;67.37;101790.22;5057158;28;20169;-80
2022/10/15 10:10:29;;;;;;;9.10;3.90;;;;;;;17.51;67.61;101790.53;5066845;28;20462;-81
2022/10/15 10:12:55;;;;;;;14.55;4.53;;;;;;;17.31;67.94;101771.19;5036064;28;20036;-80
2022/10/15 10:15:21;;;;;;;;;;;;;;;17.47;67.85;101800.06;5050961;28;20025;-81
2022/10/15 10:17:54;;;;;;;9.88;4.38;;;;;;;17.47;68.07;101801.81;5053363;28;19912;-80
2022/10/15 10:20:23;;;;;;;10.25;4.43;;;;;;;17.50;67.69;101800.22;5047611;28;20031;-80
2022/10/15 10:22:54;;;;;;;11.55;3.70;;;;;;;17.43;67.84;101787.56;5051480;28;20116;-80
2022/10/15 10:25:25;;;;;;;10.80;4.40;;;;;;;17.52;67.70;101804.63;5057388;28;20074;-80
2022/10/15 10:27:52;;;;;;;10.07;4.07;;;;;;;17.52;67.64;101802.88;5045228;28;20506;-80
2022/10/15 10:30:18;;;;;;;9.10;3.95;;;;;;;17.47;67.46;101797.41;5060602;28;20036;-80
2022/10/15 10:32:44;;;;;;;9.30;3.95;;;;;;;17.51;67.79;101803.75;5047010;28;20030;-80
2022/10/15 10:35:34;;;;;;;10.13;4.03;;;;;;;17.48;67.90;101806.25;5049221;28;20033;-80
2022/10/15 10:38:01;;;;;;;8.18;4.13;;;;;;;17.53;67.40;101804.72;5051200;28;20059;-80
2022/10/15 10:40:27;;;;;;;;;;;;;;;17.55;67.58;101804.78;5049145;28;20056;-81
2022/10/15 10:43:20;;;;;;;10.80;4.20;;;;;;;17.56;67.39;101799.53;5048192;28;19913;-81
2022/10/15 10:45:57;;;;;;;8.73;3.85;;;;;;;17.52;67.14;101792.31;5045633;28;20060;-80
2022/10/15 10:48:25;;;;;;;;;;;;;;;17.56;67.47;101783.69;5038822;28;20132;-81
2022/10/15 10:51:17;;;;;;;11.00;4.00;;;;;;;17.56;67.35;101793.38;5044263;28;19995;-84
2022/10/15 10:53:52;;;;;;;7.57;4.00;;;;;;;17.54;67.22;101795.03;5031167;28;20036;-80
2022/10/15 10:56:23;;;;;;;8.25;3.75;;;;;;;17.52;67.34;101786.16;5046781;28;20129;-81
2022/10/15 10:59:03;;;;;;;8.10;3.28;;;;;;;17.53;67.41;101788.88;5049580;28;20025;-80
2022/10/15 11:01:29;;;;;;;12.57;3.70;;;;;;;17.56;66.95;101785.44;5050337;28;20036;-80
2022/10/15 11:03:55;;;;;;;7.10;3.35;;;;;;;17.56;67.10;101783.69;5054500;28;20025;-81
2022/10/15 11:06:28;;;;;;;10.00;3.92;;;;;;;17.56;67.67;101783.69;5048274;28;20034;-81
2022/10/15 11:09:18;;;;;;;6.63;3.85;;;;;;;17.52;67.90;101786.16;5049090;28;20561;-80
2022/10/15 11:12:09;;;;;;;10.30;3.85;;;;;;;17.55;67.64;101781.00;5068270;28;20082;-81
2022/10/15 11:14:47;;;;;;;7.13;3.92;;;;;;;17.56;67.41;101780.16;5039971;28;20028;-80
2022/10/15 11:18:02;;;;;;;7.32;3.60;;;;;;;17.58;67.18;101774.09;5051062;28;20029;-80
2022/10/15 11:20:55;;;;;;;8.75;3.50;;;;;;;17.53;67.65;101780.94;5040430;28;20127;-80
2022/10/15 11:23:39;;;;;;;7.40;3.70;;;;;;;17.57;68.01;101781.94;5039525;28;20487;-81
2022/10/15 11:26:20;;;;;;;7.38;3.50;;;;;;;17.54;67.95;101788.00;5040494;28;20511;-81
2022/10/15 11:29:05;;;;;;;6.55;3.22;;;;;;;17.43;67.48;101766.44;5037116;28;20033;-80
2022/10/15 11:32:07;;;;;;;9.73;3.33;;;;;;;17.60;67.39;101777.69;5040465;28;20103;-80
2022/10/15 11:35:01;;;;;;;6.28;3.42;;;;;;;17.52;67.56;101783.50;5041426;28;20057;-81
2022/10/15 11:37:44;;;;;;;8.52;3.33;;;;;;;17.57;67.68;101781.94;5035172;28;20041;-80
2022/10/15 11:43:32;;;;;;;6.30;3.10;;;;;;;17.57;67.61;101780.22;5044545;28;20041;-80